Adamsons Peak, Australia
Current Conditions -  °F | °C
As of 8:30 PM on Friday 24 Oct 2014 (Local Time) from YMHB Reporting Station
Broken Clouds Broken Clouds  
Wind Chill: 63°   Ceiling: 14000
Heat Index: 63°   Visibility: 6mi
Dew Point: 55°   Wind: 8mph
Humidity: 77%   Direction: 30°NNE
Pressure: 29.77"   Gusts: NA
Location:  43.35°S, 146.8°E
Report Text: YMHB 240930Z 03007KT 9999 FEW020 BKN140 17/13 Q1008
Loading
Personal Weather Stations






























Interactive Weather Map
Tropical Storm Tracking
New forecast layout! Learn more

10-Day Weather Forecast

Advertisements
Track Severe Weather on mobile